createdAt,value
2023-02-07T00:07:18.101Z,-10.86
2023-02-07T00:17:24.371Z,-10.94
2023-02-07T00:27:31.034Z,-11.00
2023-02-07T00:37:37.134Z,-11.08
2023-02-07T00:47:43.094Z,-11.24
2023-02-07T00:57:49.622Z,-11.39
2023-02-07T01:07:55.733Z,-11.49
2023-02-07T01:18:01.745Z,-11.50
2023-02-07T01:28:08.315Z,-11.42
2023-02-07T01:38:14.387Z,-11.11
2023-02-07T01:48:24.917Z,-10.76
2023-02-07T01:58:32.219Z,-10.30
2023-02-07T02:08:38.128Z,-9.85
2023-02-07T02:18:54.198Z,-9.49
2023-02-07T02:29:41.880Z,-9.09
2023-02-07T02:39:57.622Z,-8.63
2023-02-07T02:50:04.010Z,-8.22
2023-02-07T03:00:32.466Z,-7.85
2023-02-07T03:10:46.639Z,-7.56
2023-02-07T03:20:57.636Z,-7.31
2023-02-07T03:31:06.800Z,-7.10
2023-02-07T03:41:17.680Z,-6.91
2023-02-07T03:51:23.671Z,-6.86
2023-02-07T04:01:29.902Z,-6.76
2023-02-07T04:11:35.901Z,-6.63
2023-02-07T04:21:42.155Z,-6.50
2023-02-07T04:31:48.151Z,-6.38
2023-02-07T04:41:54.338Z,-6.26
2023-02-07T04:52:00.343Z,-6.14
2023-02-07T05:02:06.262Z,-6.02
2023-02-07T05:12:13.154Z,-5.99
2023-02-07T05:22:18.953Z,-5.94
2023-02-07T05:32:42.284Z,-5.87
2023-02-07T05:43:18.600Z,-5.82
2023-02-07T05:53:24.585Z,-5.79
2023-02-07T06:03:30.981Z,-5.73
2023-02-07T06:13:37.000Z,-5.64
2023-02-07T06:23:42.941Z,-5.51
2023-02-07T06:33:48.879Z,-5.32
2023-02-07T06:43:55.089Z,-5.16
2023-02-07T06:54:03.382Z,-4.93
2023-02-07T07:04:09.312Z,-4.75
2023-02-07T07:14:15.213Z,-4.60
2023-02-07T07:24:21.385Z,-4.48
2023-02-07T07:34:27.243Z,-4.35
2023-02-07T07:44:33.161Z,-4.19
2023-02-07T07:54:39.063Z,-4.00
2023-02-07T08:04:44.925Z,-3.84
2023-02-07T08:14:50.807Z,-3.66
2023-02-07T08:24:56.375Z,-3.51
2023-02-07T08:35:02.156Z,-3.50
2023-02-07T08:45:08.984Z,-3.44
2023-02-07T08:55:14.840Z,-3.27
2023-02-07T09:05:20.726Z,-3.10
2023-02-07T09:15:26.694Z,-3.06
2023-02-07T09:25:31.134Z,-2.91
2023-02-07T09:35:41.644Z,-2.83
2023-02-07T09:45:50.595Z,-2.86
2023-02-07T09:55:59.445Z,-2.81
2023-02-07T10:06:18.304Z,-2.85
2023-02-07T10:16:39.202Z,-2.78
2023-02-07T10:26:49.566Z,-2.80
2023-02-07T10:36:58.198Z,-2.78
2023-02-07T10:47:07.738Z,-2.66
2023-02-07T10:57:21.233Z,-2.44
2023-02-07T11:07:29.311Z,-2.07
2023-02-07T11:17:38.272Z,-1.61
2023-02-07T11:27:48.024Z,-1.27
2023-02-07T11:38:04.616Z,-1.37
2023-02-07T11:48:19.943Z,-1.36
2023-02-07T11:58:34.379Z,-1.24
2023-02-07T12:08:42.745Z,-0.86
2023-02-07T12:18:55.074Z,-0.77
2023-02-07T12:29:16.452Z,-0.71
2023-02-07T12:39:31.176Z,-0.75
2023-02-07T12:50:04.688Z,-0.74
2023-02-07T13:00:16.484Z,-0.72
2023-02-07T13:10:31.747Z,-0.85
2023-02-07T13:20:52.265Z,-1.06
2023-02-07T13:31:00.053Z,-1.13
2023-02-07T13:41:13.232Z,-1.15
2023-02-07T13:51:28.707Z,-1.21
2023-02-07T14:01:37.104Z,-1.29
2023-02-07T14:11:45.066Z,-1.19
2023-02-07T14:22:17.984Z,-1.30
2023-02-07T14:32:32.650Z,-1.40
2023-02-07T14:42:39.572Z,-1.46
2023-02-07T14:52:47.637Z,-1.55
2023-02-07T15:02:57.798Z,-1.73
2023-02-07T15:13:07.269Z,-1.89
2023-02-07T15:23:16.727Z,-2.00
2023-02-07T15:33:27.929Z,-2.12
2023-02-07T15:43:35.814Z,-2.20
2023-02-07T15:53:41.955Z,-2.32
2023-02-07T16:03:47.185Z,-2.38
2023-02-07T16:13:56.698Z,-2.45
2023-02-07T16:24:06.476Z,-2.48
2023-02-07T16:34:15.198Z,-2.54
2023-02-07T16:44:24.272Z,-2.59
2023-02-07T16:54:30.479Z,-2.64
2023-02-07T17:04:36.574Z,-2.69
2023-02-07T17:14:42.598Z,-2.70
2023-02-07T17:24:48.947Z,-2.71
2023-02-07T17:34:54.896Z,-2.70
2023-02-07T17:45:00.800Z,-2.69
2023-02-07T17:55:07.845Z,-2.71
2023-02-07T18:05:13.787Z,-2.70
2023-02-07T18:15:20.314Z,-2.68
2023-02-07T18:25:28.068Z,-2.70
2023-02-07T18:35:34.653Z,-2.69
2023-02-07T18:45:43.689Z,-2.66
2023-02-07T18:55:49.610Z,-2.64
2023-02-07T19:05:59.312Z,-2.64
2023-02-07T19:16:07.850Z,-2.62
2023-02-07T19:26:13.731Z,-2.62
2023-02-07T19:36:22.317Z,-2.65
2023-02-07T19:46:28.738Z,-2.67
2023-02-07T19:56:36.702Z,-2.64
2023-02-07T20:06:42.626Z,-2.61
2023-02-07T20:16:49.235Z,-2.58
2023-02-07T20:26:55.161Z,-2.57
2023-02-07T20:37:01.190Z,-2.58
2023-02-07T20:47:06.020Z,-2.57
2023-02-07T20:57:12.015Z,-2.54
2023-02-07T21:07:18.311Z,-2.55
2023-02-07T21:17:24.461Z,-2.54
2023-02-07T21:27:30.967Z,-2.55
2023-02-07T21:37:37.160Z,-2.55
2023-02-07T21:47:43.090Z,-2.56
2023-02-07T21:57:49.033Z,-2.61
2023-02-07T22:07:53.541Z,-2.59
2023-02-07T22:17:59.429Z,-2.60
2023-02-07T22:28:06.041Z,-2.59
2023-02-07T22:38:13.755Z,-2.58
2023-02-07T22:48:19.611Z,-2.54
2023-02-07T22:58:25.618Z,-2.51
2023-02-07T23:08:31.392Z,-2.50
2023-02-07T23:18:37.361Z,-2.46
2023-02-07T23:28:45.073Z,-2.45
2023-02-07T23:38:51.517Z,-2.44
2023-02-07T23:48:57.504Z,-2.42
2023-02-07T23:59:03.285Z,-2.43
